Pagrindinis puslapis
METAR-TAF:

METAR-TAF

Oro uostai :

Talara, Peru

platuma: 04-34S, ilguma: 081-15W, Aukštis: 85 m

Dabartinis oras

Ataskaita buvo paskelbta 2 valandos ir 35 minutes, ne 22:00 UTC
Vėjas 11 kt iš Pietų
Temperatūra 22°C
Drėgmė 57%
Slėgis 1012 hPa
Matomumas 10 km arba daugiau
nėra debesų žemiau 1500 m ir nėra kamuolinių lietaus debesų

METAR: SPYL 222200Z 19011KT CAVOK 22/13 Q1012 RMK TX29.4 BIRD HAZARD RWY 17/35 PP000

Laikas: 19:35 (00:35 UTC)

Prognozė

Ataskaita buvo paskelbta 7 valandos ir 35 minutes, ne 17:00 UTC
Prognozė galioja nuo 22 metu 18 UTC su 23 metu 18 UTC
Vėjas 15 kt iš Pietų
Matomumas 10 km arba daugiau
nėra debesų žemiau 1500 m ir nėra kamuolinių lietaus debesų

TAF: SPYL 221700Z 2218/2318 19015KT CAVOK TX30/2219Z TN20/2311Z

Orai ataskaitas ir orų prognozės (METAR, TAF).

turimą stotys yra geltonos ir raudonos taškus žemėlapyje.

Perkelti pele per norėdami pamatyti stoties vardą.

Tada spustelėkite, norėdami matyti oro stebėjimo ir prognozės.

Norėdami pakeisti žemėlapį: spustelėkite ant žalios mygtukų su juodo kryžiaus žemyn,; žalią mygtuką su brūkšneliu, jei norite nutolinti; arba žalių rodyklių gretimoms žemėlapius.


METAR-TAF: